createdAt,value
2023-04-21T00:00:35.449Z,8.95
2023-04-21T00:02:39.608Z,8.10
2023-04-21T00:04:45.484Z,10.02
2023-04-21T00:06:48.249Z,7.63
2023-04-21T00:08:51.205Z,9.05
2023-04-21T00:10:55.331Z,8.18
2023-04-21T00:12:57.876Z,9.02
2023-04-21T00:15:00.621Z,8.68
2023-04-21T00:17:03.179Z,5.97
2023-04-21T00:19:07.040Z,7.75
2023-04-21T00:21:09.610Z,11.60
2023-04-21T00:23:12.266Z,6.78
2023-04-21T00:25:15.483Z,6.55
2023-04-21T00:27:19.990Z,8.20
2023-04-21T00:29:22.529Z,6.90
2023-04-21T00:31:25.254Z,8.52
2023-04-21T00:33:27.917Z,9.07
2023-04-21T00:35:30.831Z,4.80
2023-04-21T00:37:33.414Z,7.00
2023-04-21T00:39:35.931Z,4.47
2023-04-21T00:41:39.869Z,6.10
2023-04-21T00:44:05.599Z,5.88
2023-04-21T00:46:08.152Z,5.43
2023-04-21T00:48:12.043Z,4.70
2023-04-21T00:50:14.617Z,9.02
2023-04-21T00:52:18.874Z,7.60
2023-04-21T00:54:22.084Z,5.13
2023-04-21T00:56:25.410Z,6.63
2023-04-21T00:58:28.138Z,6.88
2023-04-21T01:00:32.107Z,5.97
2023-04-21T01:02:37.277Z,7.07
2023-04-21T01:04:40.252Z,5.45
2023-04-21T01:06:43.160Z,7.32
2023-04-21T01:08:47.348Z,4.35
2023-04-21T01:10:49.882Z,5.18
2023-04-21T01:12:52.455Z,5.22
2023-04-21T01:14:55.033Z,5.85
2023-04-21T01:16:59.349Z,6.47
2023-04-21T01:19:04.496Z,5.38
2023-04-21T01:21:07.503Z,5.15
2023-04-21T01:23:11.451Z,4.78
2023-04-21T01:25:14.064Z,8.55
2023-04-21T01:27:19.132Z,5.30
2023-04-21T01:29:21.692Z,5.00
2023-04-21T01:31:24.276Z,7.63
2023-04-21T01:33:26.987Z,6.22
2023-04-21T01:35:29.595Z,5.47
2023-04-21T01:37:33.743Z,6.28
2023-04-21T01:39:39.997Z,6.32
2023-04-21T01:41:42.546Z,5.50
2023-04-21T01:43:45.151Z,5.60
2023-04-21T01:45:49.209Z,5.10
2023-04-21T01:47:51.792Z,3.92
2023-04-21T01:49:54.606Z,6.55
2023-04-21T01:51:57.133Z,5.20
2023-04-21T01:53:59.660Z,5.97
2023-04-21T01:56:03.628Z,7.07
2023-04-21T01:58:06.221Z,5.95
2023-04-21T02:00:10.220Z,8.10
2023-04-21T02:02:13.012Z,10.20
2023-04-21T02:04:15.675Z,7.15
2023-04-21T02:06:18.735Z,7.78
2023-04-21T02:08:21.272Z,6.72
2023-04-21T02:10:24.030Z,8.02
2023-04-21T02:12:27.897Z,5.57
2023-04-21T02:14:30.478Z,8.25
2023-04-21T02:16:33.062Z,8.85
2023-04-21T02:18:39.849Z,8.95
2023-04-21T02:20:42.417Z,9.40
2023-04-21T02:22:45.163Z,10.02
2023-04-21T02:24:47.784Z,9.90
2023-04-21T02:26:50.370Z,9.27
2023-04-21T02:28:54.295Z,8.75
2023-04-21T02:30:56.868Z,11.88
2023-04-21T02:32:59.468Z,11.70
2023-04-21T02:35:02.076Z,8.88
2023-04-21T02:37:04.869Z,9.18
2023-04-21T02:39:07.573Z,10.18
2023-04-21T02:41:10.375Z,10.45
2023-04-21T02:43:14.610Z,11.60
2023-04-21T02:45:18.715Z,11.15
2023-04-21T02:47:21.382Z,7.95
2023-04-21T02:49:23.977Z,8.30
2023-04-21T02:51:26.818Z,13.50
2023-04-21T02:53:29.381Z,11.90
2023-04-21T02:55:32.132Z,10.52
2023-04-21T02:57:34.732Z,12.18
2023-04-21T02:59:37.300Z,13.88
2023-04-21T03:01:41.166Z,11.95
2023-04-21T03:03:43.827Z,13.75
2023-04-21T03:05:46.449Z,13.15
2023-04-21T03:07:49.040Z,14.13
2023-04-21T03:09:51.618Z,14.05
2023-04-21T03:11:54.156Z,13.10
2023-04-21T03:13:56.690Z,13.77
2023-04-21T03:15:59.289Z,13.13
2023-04-21T03:18:03.200Z,12.98
2023-04-21T03:20:08.132Z,25.33
2023-04-21T03:22:10.684Z,12.45
2023-04-21T03:24:13.397Z,11.00
2023-04-21T03:26:18.684Z,13.55
2023-04-21T03:28:21.228Z,11.13
2023-04-21T03:30:25.663Z,11.75
2023-04-21T03:32:28.350Z,10.90
2023-04-21T03:34:32.318Z,10.85
2023-04-21T03:36:37.190Z,12.77
2023-04-21T03:38:39.702Z,9.93
2023-04-21T03:40:42.291Z,13.02
2023-04-21T03:42:45.053Z,11.65
2023-04-21T03:44:47.571Z,17.35
2023-04-21T03:46:50.166Z,18.65
2023-04-21T03:48:52.723Z,11.77
2023-04-21T03:50:56.755Z,13.38
2023-04-21T03:52:59.313Z,12.77
2023-04-21T03:55:01.823Z,12.77
2023-04-21T03:57:04.361Z,13.40
2023-04-21T03:59:07.119Z,13.10
2023-04-21T04:01:09.630Z,15.27
2023-04-21T04:03:12.349Z,14.60
2023-04-21T04:05:14.992Z,19.00
2023-04-21T04:07:19.031Z,13.90
2023-04-21T04:09:21.711Z,15.18
2023-04-21T04:11:24.357Z,17.30
2023-04-21T04:13:27.613Z,14.98
2023-04-21T04:15:30.221Z,15.48
2023-04-21T04:17:32.820Z,14.68
2023-04-21T04:19:35.347Z,13.95
2023-04-21T04:21:38.160Z,14.90
2023-04-21T04:23:42.569Z,14.63
2023-04-21T04:25:45.456Z,15.68
2023-04-21T04:27:49.419Z,13.60
2023-04-21T04:29:51.968Z,14.45
2023-04-21T04:31:54.716Z,16.65
2023-04-21T04:33:57.339Z,15.50
2023-04-21T04:35:59.889Z,19.80
2023-04-21T04:38:02.409Z,14.77
2023-04-21T04:40:09.992Z,17.42
2023-04-21T04:42:12.601Z,18.95
2023-04-21T04:44:16.226Z,17.90
2023-04-21T04:46:20.556Z,19.25
2023-04-21T04:48:24.363Z,19.85
2023-04-21T04:50:27.053Z,21.20
2023-04-21T04:52:29.595Z,30.05
2023-04-21T04:54:32.132Z,53.28
2023-04-21T04:56:36.586Z,16.15
2023-04-21T04:58:39.202Z,16.70
2023-04-21T05:00:41.796Z,17.77
2023-04-21T05:02:44.610Z,16.77
2023-04-21T05:04:47.450Z,17.30
2023-04-21T05:06:50.119Z,18.58
2023-04-21T05:08:52.684Z,20.17
2023-04-21T05:10:55.215Z,20.67
2023-04-21T05:12:59.052Z,19.63
2023-04-21T05:15:01.585Z,16.13
2023-04-21T05:17:04.276Z,26.17
2023-04-21T05:19:07.041Z,44.92
2023-04-21T05:21:09.579Z,19.40
2023-04-21T05:23:12.119Z,18.63
2023-04-21T05:25:15.813Z,15.43
2023-04-21T05:27:18.446Z,17.20
2023-04-21T05:29:22.333Z,17.30
2023-04-21T05:31:25.304Z,15.98
2023-04-21T05:33:27.851Z,16.98
2023-04-21T05:35:31.481Z,19.77
2023-04-21T05:37:34.081Z,19.45
2023-04-21T05:39:36.599Z,18.95
2023-04-21T05:41:39.136Z,18.88
2023-04-21T05:43:41.657Z,20.92
2023-04-21T05:45:45.532Z,23.92
2023-04-21T05:47:48.094Z,22.10
2023-04-21T05:49:53.644Z,22.35
2023-04-21T05:51:56.284Z,27.48
2023-04-21T05:53:58.907Z,21.20
2023-04-21T05:56:01.446Z,28.85
2023-04-21T05:58:04.202Z,22.63
2023-04-21T06:00:08.538Z,43.25
2023-04-21T06:02:12.671Z,62.72
2023-04-21T06:04:15.864Z,20.38
2023-04-21T06:06:18.765Z,21.85
2023-04-21T06:08:21.335Z,21.77
2023-04-21T06:10:23.895Z,30.67
2023-04-21T06:12:26.447Z,22.88
2023-04-21T06:14:29.153Z,23.27
2023-04-21T06:16:34.124Z,21.33
2023-04-21T06:18:38.083Z,22.05
2023-04-21T06:20:41.446Z,21.90
2023-04-21T06:22:43.976Z,21.90
2023-04-21T06:24:46.499Z,22.60
2023-04-21T06:26:49.036Z,24.15
2023-04-21T06:28:51.746Z,22.90
2023-04-21T06:30:54.256Z,28.17
2023-04-21T06:32:56.814Z,21.65
2023-04-21T06:35:00.699Z,20.90
2023-04-21T06:37:03.319Z,23.67
2023-04-21T06:39:05.841Z,24.02
2023-04-21T06:41:08.360Z,22.48
2023-04-21T06:43:10.928Z,25.60
2023-04-21T06:45:13.523Z,22.00
2023-04-21T06:47:16.712Z,52.58
2023-04-21T06:49:19.674Z,33.42
2023-04-21T06:51:23.817Z,30.20
2023-04-21T06:53:26.458Z,42.67
2023-04-21T06:55:29.102Z,24.77
2023-04-21T06:57:31.644Z,21.73
2023-04-21T06:59:34.887Z,21.77
2023-04-21T07:01:37.445Z,22.98
2023-04-21T07:05:42.794Z,24.88
2023-04-21T07:07:46.688Z,53.38
2023-04-21T07:09:49.304Z,27.85
2023-04-21T07:11:51.853Z,20.40
2023-04-21T07:13:54.366Z,33.78
2023-04-21T07:15:57.257Z,19.02
2023-04-21T07:17:59.889Z,23.75
2023-04-21T07:20:02.546Z,21.88
2023-04-21T07:22:05.089Z,22.60
2023-04-21T07:24:09.823Z,38.33
2023-04-21T07:26:12.408Z,26.80
2023-04-21T07:28:16.076Z,53.58
2023-04-21T07:30:18.644Z,31.88
2023-04-21T07:32:21.212Z,35.63
2023-04-21T07:34:23.868Z,31.05
2023-04-21T07:36:28.906Z,31.25
2023-04-21T07:38:34.688Z,39.33
2023-04-21T07:40:38.729Z,37.38
2023-04-21T07:42:41.332Z,32.05
2023-04-21T07:44:45.620Z,32.97
2023-04-21T07:46:48.207Z,29.95
2023-04-21T07:48:50.935Z,31.20
2023-04-21T07:50:53.533Z,30.20
2023-04-21T07:52:56.091Z,35.97
2023-04-21T07:54:58.620Z,26.50
2023-04-21T07:57:02.688Z,28.85
2023-04-21T07:59:05.221Z,27.42
2023-04-21T08:01:07.885Z,26.80
2023-04-21T08:03:10.643Z,25.67
2023-04-21T08:05:13.410Z,30.23
2023-04-21T08:07:18.983Z,27.00
2023-04-21T08:09:21.919Z,27.70
2023-04-21T08:11:24.680Z,25.48
2023-04-21T08:13:28.643Z,28.63
2023-04-21T08:15:31.208Z,27.65
2023-04-21T08:17:33.958Z,25.92
2023-04-21T08:19:36.650Z,26.55
2023-04-21T08:21:41.070Z,27.58
2023-04-21T08:23:43.595Z,27.60
2023-04-21T08:25:46.168Z,26.17
2023-04-21T08:27:48.790Z,26.60
2023-04-21T08:29:52.730Z,27.27
2023-04-21T08:31:55.417Z,26.85
2023-04-21T08:34:01.858Z,25.55
2023-04-21T08:36:12.180Z,26.02
2023-04-21T08:38:20.903Z,25.88
2023-04-21T08:40:33.140Z,26.67
2023-04-21T08:42:36.883Z,26.60
2023-04-21T08:44:41.475Z,25.77
2023-04-21T08:46:46.548Z,25.95
2023-04-21T08:48:49.166Z,25.83
2023-04-21T08:50:52.226Z,28.77
2023-04-21T08:52:55.534Z,30.67
2023-04-21T08:54:58.439Z,29.08
2023-04-21T08:57:14.100Z,28.55
2023-04-21T08:59:18.387Z,30.00
2023-04-21T09:01:21.457Z,28.75
2023-04-21T09:03:26.731Z,27.38
2023-04-21T09:05:31.632Z,29.10
2023-04-21T09:07:36.231Z,29.25
2023-04-21T09:09:54.702Z,24.27
2023-04-21T09:11:58.358Z,22.90
2023-04-21T09:14:01.112Z,21.42
2023-04-21T09:16:08.229Z,21.75
2023-04-21T09:18:15.563Z,22.25
2023-04-21T09:20:21.470Z,19.50
2023-04-21T09:22:29.366Z,17.45
2023-04-21T09:24:35.097Z,16.83
2023-04-21T09:26:37.757Z,18.52
2023-04-21T09:28:43.809Z,18.58
2023-04-21T09:30:46.530Z,18.00
2023-04-21T09:32:49.082Z,18.80
2023-04-21T09:34:51.705Z,17.02
2023-04-21T09:37:02.465Z,16.75
2023-04-21T09:41:11.566Z,13.43
2023-04-21T09:43:14.103Z,13.30
2023-04-21T09:45:32.812Z,12.93
2023-04-21T09:47:42.564Z,14.20
2023-04-21T09:49:46.151Z,13.43
2023-04-21T09:52:17.128Z,14.95
2023-04-21T09:56:25.433Z,14.93
2023-04-21T09:58:34.469Z,16.33
2023-04-21T10:00:39.763Z,14.00
2023-04-21T10:02:45.233Z,15.57
2023-04-21T10:04:48.280Z,13.45
2023-04-21T10:06:52.213Z,12.82
2023-04-21T10:08:58.023Z,15.65
2023-04-21T10:11:03.024Z,19.45
2023-04-21T10:13:05.778Z,16.25
2023-04-21T10:15:35.490Z,17.45
2023-04-21T10:17:38.379Z,16.77
2023-04-21T10:19:50.707Z,14.43
2023-04-21T10:21:56.069Z,13.52
2023-04-21T10:23:59.151Z,17.08
2023-04-21T10:26:07.741Z,15.18
2023-04-21T10:28:10.567Z,18.10
2023-04-21T10:30:20.790Z,27.80
2023-04-21T10:32:41.339Z,20.88
2023-04-21T10:34:44.956Z,18.50
2023-04-21T10:37:06.302Z,18.45
2023-04-21T10:39:09.003Z,20.23
2023-04-21T10:41:30.129Z,20.38
2023-04-21T10:43:45.172Z,23.93
2023-04-21T10:45:50.524Z,18.35
2023-04-21T10:47:54.840Z,24.35
2023-04-21T10:49:58.322Z,20.73
2023-04-21T10:52:05.486Z,18.10
2023-04-21T10:54:08.113Z,18.42
2023-04-21T10:56:10.881Z,18.15
2023-04-21T10:58:16.650Z,19.35
2023-04-21T11:00:22.369Z,16.80
2023-04-21T11:02:25.220Z,18.27
2023-04-21T11:04:29.777Z,14.02
2023-04-21T11:06:32.828Z,14.63
2023-04-21T11:08:37.134Z,15.27
2023-04-21T11:10:53.764Z,16.98
2023-04-21T11:12:58.544Z,14.07
2023-04-21T11:15:08.411Z,18.38
2023-04-21T11:17:13.274Z,15.02
2023-04-21T11:19:16.415Z,16.67
2023-04-21T11:21:21.881Z,18.85
2023-04-21T11:23:24.432Z,15.77
2023-04-21T11:25:27.497Z,20.85
2023-04-21T11:27:30.752Z,16.45
2023-04-21T11:29:34.258Z,15.10
2023-04-21T11:31:37.845Z,18.63
2023-04-21T11:33:40.584Z,18.58
2023-04-21T11:35:43.209Z,18.63
2023-04-21T11:37:47.120Z,19.70
2023-04-21T11:39:49.652Z,17.98
2023-04-21T11:41:53.004Z,24.05
2023-04-21T11:43:55.567Z,19.88
2023-04-21T11:46:12.480Z,19.45
2023-04-21T11:48:16.257Z,20.10
2023-04-21T11:50:32.157Z,26.20
2023-04-21T11:52:37.301Z,22.55
2023-04-21T11:54:44.199Z,23.75
2023-04-21T11:56:48.472Z,25.27
2023-04-21T11:58:52.601Z,21.88
2023-04-21T12:00:55.298Z,22.83
2023-04-21T12:02:58.470Z,22.15
2023-04-21T12:05:03.020Z,19.65
2023-04-21T12:07:05.952Z,22.23
2023-04-21T12:09:08.535Z,21.63
2023-04-21T12:11:12.428Z,23.33
2023-04-21T12:13:20.060Z,22.00
2023-04-21T12:15:23.704Z,24.33
2023-04-21T12:17:26.335Z,19.95
2023-04-21T12:19:37.240Z,21.25
2023-04-21T12:21:40.463Z,17.30
2023-04-21T12:23:44.639Z,19.13
2023-04-21T12:25:47.563Z,18.88
2023-04-21T12:27:52.460Z,19.42
2023-04-21T12:29:55.203Z,18.50
2023-04-21T12:31:57.842Z,17.58
2023-04-21T12:34:00.528Z,18.67
2023-04-21T12:36:03.508Z,16.20
2023-04-21T12:38:06.173Z,16.13
2023-04-21T12:40:09.723Z,14.55
2023-04-21T12:42:12.325Z,14.90
2023-04-21T12:44:16.325Z,15.60
2023-04-21T12:46:19.042Z,15.45
2023-04-21T12:48:21.640Z,13.25
2023-04-21T12:50:24.171Z,12.25
2023-04-21T12:52:27.060Z,15.10
2023-04-21T12:54:29.587Z,12.35
2023-04-21T12:56:32.281Z,13.30
2023-04-21T12:58:34.830Z,13.70
2023-04-21T13:00:38.737Z,11.38
2023-04-21T13:02:41.425Z,11.45
2023-04-21T13:04:44.261Z,10.18
2023-04-21T13:06:46.844Z,8.90
2023-04-21T13:08:49.488Z,9.60
2023-04-21T13:10:53.989Z,9.45
2023-04-21T13:12:57.642Z,10.98
2023-04-21T13:15:00.271Z,10.50
2023-04-21T13:17:04.219Z,8.80
2023-04-21T13:19:06.774Z,8.85
2023-04-21T13:21:09.323Z,10.70
2023-04-21T13:23:14.138Z,8.70
2023-04-21T13:25:17.739Z,9.45
2023-04-21T13:27:20.578Z,7.70
2023-04-21T13:29:23.129Z,7.47
2023-04-21T13:31:26.303Z,8.25
2023-04-21T13:33:30.512Z,6.85
2023-04-21T13:35:33.069Z,7.45
2023-04-21T13:37:35.776Z,8.52
2023-04-21T13:39:38.372Z,7.18
2023-04-21T13:41:40.911Z,5.93
2023-04-21T13:43:43.801Z,7.13
2023-04-21T13:45:48.082Z,6.45
2023-04-21T13:47:51.844Z,9.00
2023-04-21T13:49:58.628Z,7.18
2023-04-21T13:52:01.154Z,8.40
2023-04-21T13:54:03.800Z,10.15
2023-04-21T13:56:06.706Z,5.45
2023-04-21T13:58:09.816Z,6.65
2023-04-21T14:00:13.255Z,6.78
2023-04-21T14:02:16.239Z,4.45
2023-04-21T14:04:21.007Z,4.35
2023-04-21T14:06:25.082Z,5.43
2023-04-21T14:08:27.635Z,7.25
2023-04-21T14:10:30.180Z,4.22
2023-04-21T14:12:32.746Z,8.10
2023-04-21T14:14:38.802Z,4.65
2023-04-21T14:16:41.949Z,8.60
2023-04-21T14:18:46.417Z,5.32
2023-04-21T14:20:48.977Z,4.85
2023-04-21T14:22:52.844Z,4.57
2023-04-21T14:24:55.398Z,5.20
2023-04-21T14:26:57.937Z,4.55
2023-04-21T14:29:01.470Z,5.93
2023-04-21T14:31:04.329Z,7.00
2023-04-21T14:33:07.197Z,4.88
2023-04-21T14:35:10.391Z,4.28
2023-04-21T14:37:13.006Z,4.00
2023-04-21T14:39:16.925Z,3.92
2023-04-21T14:41:19.439Z,7.78
2023-04-21T14:43:22.035Z,6.93
2023-04-21T14:45:24.786Z,3.15
2023-04-21T14:47:27.499Z,4.95
2023-04-21T14:49:30.238Z,2.95
2023-04-21T14:51:32.899Z,3.28
2023-04-21T14:53:35.592Z,4.88
2023-04-21T14:55:41.666Z,3.75
2023-04-21T14:57:44.663Z,4.60
2023-04-21T14:59:47.221Z,3.00
2023-04-21T15:01:49.834Z,3.70
2023-04-21T15:03:52.681Z,2.92
2023-04-21T15:05:55.586Z,1.48
2023-04-21T15:07:58.124Z,3.33
2023-04-21T15:10:00.948Z,3.58
2023-04-21T15:12:05.609Z,2.00
2023-04-21T15:14:08.263Z,2.30
2023-04-21T15:16:10.843Z,4.57
2023-04-21T15:18:13.469Z,6.22
2023-04-21T15:20:16.068Z,2.60
2023-04-21T15:22:18.851Z,3.47
2023-04-21T15:24:21.410Z,3.67
2023-04-21T15:26:24.384Z,4.47
2023-04-21T15:28:28.316Z,2.13
2023-04-21T15:30:30.944Z,2.22
2023-04-21T15:32:33.554Z,4.90
2023-04-21T15:34:36.428Z,2.13
2023-04-21T15:36:38.966Z,2.40
2023-04-21T15:38:41.618Z,1.73
2023-04-21T15:40:59.059Z,3.42
2023-04-21T15:43:02.974Z,1.75
2023-04-21T15:45:08.323Z,2.97
2023-04-21T15:47:10.879Z,3.10
2023-04-21T15:49:13.462Z,1.50
2023-04-21T15:51:16.114Z,2.22
2023-04-21T15:53:20.086Z,2.28
2023-04-21T15:55:23.297Z,2.70
2023-04-21T15:57:28.264Z,2.45
2023-04-21T15:59:30.912Z,2.13
2023-04-21T16:01:34.967Z,3.15
2023-04-21T16:03:40.008Z,2.88
2023-04-21T16:05:43.269Z,2.40
2023-04-21T16:07:45.973Z,8.48
2023-04-21T16:09:48.551Z,2.28
2023-04-21T16:11:51.438Z,3.28
2023-04-21T16:13:54.267Z,3.30
2023-04-21T16:15:57.055Z,2.53
2023-04-21T16:18:02.249Z,2.05
2023-04-21T16:20:05.975Z,2.13
2023-04-21T16:22:09.373Z,2.03
2023-04-21T16:24:12.217Z,1.42
2023-04-21T16:26:14.887Z,3.15
2023-04-21T16:28:17.467Z,4.68
2023-04-21T16:30:20.076Z,1.80
2023-04-21T16:32:22.744Z,4.53
2023-04-21T16:34:26.750Z,5.97
2023-04-21T16:36:31.145Z,2.95
2023-04-21T16:38:33.795Z,2.92
2023-04-21T16:40:36.543Z,3.40
2023-04-21T16:42:39.310Z,3.47
2023-04-21T16:44:41.920Z,3.10
2023-04-21T16:46:44.522Z,4.25
2023-04-21T16:48:47.500Z,6.07
2023-04-21T16:50:53.742Z,4.88
2023-04-21T16:52:56.320Z,2.90
2023-04-21T16:54:59.156Z,3.38
2023-04-21T16:57:02.030Z,2.78
2023-04-21T16:59:04.772Z,5.03
2023-04-21T17:01:08.202Z,4.93
2023-04-21T17:03:10.922Z,3.38
2023-04-21T17:05:15.606Z,4.65
2023-04-21T17:07:19.602Z,3.92
2023-04-21T17:09:22.153Z,6.78
2023-04-21T17:11:24.692Z,4.43
2023-04-21T17:13:27.253Z,5.80
2023-04-21T17:15:29.830Z,3.47
2023-04-21T17:17:41.210Z,6.35
2023-04-21T17:19:43.980Z,5.18
2023-04-21T17:21:46.528Z,5.13
2023-04-21T17:23:51.114Z,5.00
2023-04-21T17:25:53.750Z,4.95
2023-04-21T17:27:56.611Z,5.60
2023-04-21T17:29:59.240Z,3.58
2023-04-21T17:32:01.870Z,7.57
2023-04-21T17:34:04.452Z,3.42
2023-04-21T17:36:08.066Z,4.88
2023-04-21T17:38:10.655Z,2.38
2023-04-21T17:40:15.272Z,5.45
2023-04-21T17:42:17.787Z,2.60
2023-04-21T17:44:20.746Z,2.55
2023-04-21T17:46:25.436Z,3.38
2023-04-21T17:48:28.278Z,4.80
2023-04-21T17:50:31.200Z,1.77
2023-04-21T17:52:33.706Z,1.95
2023-04-21T17:54:38.786Z,3.60
2023-04-21T17:56:43.048Z,3.78
2023-04-21T17:58:45.762Z,3.72
2023-04-21T18:00:48.470Z,3.00
2023-04-21T18:02:51.233Z,2.65
2023-04-21T18:04:54.126Z,2.38
2023-04-21T18:06:56.928Z,3.45
2023-04-21T18:08:59.528Z,3.67
2023-04-21T18:11:03.795Z,3.67
2023-04-21T18:13:07.830Z,4.28
2023-04-21T18:15:11.596Z,2.50
2023-04-21T18:17:16.014Z,3.55
2023-04-21T18:19:20.257Z,4.93
2023-04-21T18:21:22.857Z,3.95
2023-04-21T18:23:25.416Z,1.88
2023-04-21T18:27:36.889Z,3.10
2023-04-21T18:29:40.791Z,2.33
2023-04-21T18:31:43.447Z,4.72
2023-04-21T18:33:45.983Z,3.85
2023-04-21T18:35:48.521Z,9.35
2023-04-21T18:37:51.504Z,5.03
2023-04-21T18:39:54.192Z,6.07
2023-04-21T18:41:56.741Z,6.70
2023-04-21T18:43:59.317Z,4.22
2023-04-21T18:46:03.252Z,6.03
2023-04-21T18:48:06.402Z,7.50
2023-04-21T18:50:10.140Z,4.75
2023-04-21T18:52:13.102Z,4.88
2023-04-21T18:54:16.233Z,6.50
2023-04-21T18:56:18.797Z,3.85
2023-04-21T18:58:21.635Z,7.45
2023-04-21T19:00:24.190Z,6.00
2023-04-21T19:02:30.050Z,5.28
2023-04-21T19:04:32.914Z,11.38
2023-04-21T19:06:35.662Z,7.38
2023-04-21T19:08:42.540Z,5.18
2023-04-21T19:10:46.039Z,4.68
2023-04-21T19:12:48.702Z,4.78
2023-04-21T19:14:52.415Z,6.28
2023-04-21T19:16:56.263Z,5.22
2023-04-21T19:19:00.953Z,7.57
2023-04-21T19:21:04.439Z,7.25
2023-04-21T19:23:07.040Z,5.57
2023-04-21T19:25:11.973Z,8.98
2023-04-21T19:27:15.199Z,7.63
2023-04-21T19:29:17.794Z,6.63
2023-04-21T19:31:21.526Z,4.95
2023-04-21T19:33:24.267Z,5.53
2023-04-21T19:35:28.544Z,11.55
2023-04-21T19:37:34.452Z,6.18
2023-04-21T19:39:37.754Z,9.32
2023-04-21T19:41:40.292Z,9.48
2023-04-21T19:43:42.842Z,13.15
2023-04-21T19:45:46.119Z,10.93
2023-04-21T19:47:48.750Z,10.52
2023-04-21T19:49:51.422Z,6.38
2023-04-21T19:51:56.016Z,9.38
2023-04-21T19:54:07.892Z,9.70
2023-04-21T19:56:14.270Z,7.70
2023-04-21T19:58:25.201Z,12.10
2023-04-21T20:00:39.505Z,10.90
2023-04-21T20:02:42.380Z,13.32
2023-04-21T20:04:45.442Z,9.23
2023-04-21T20:06:48.128Z,9.57
2023-04-21T20:08:52.189Z,15.95
2023-04-21T20:10:54.723Z,11.73
2023-04-21T20:12:57.278Z,7.28
2023-04-21T20:15:00.180Z,11.75
2023-04-21T20:17:02.844Z,12.52
2023-04-21T20:19:06.195Z,13.48
2023-04-21T20:21:08.712Z,9.93
2023-04-21T20:23:12.188Z,8.55
2023-04-21T20:25:16.426Z,9.07
2023-04-21T20:27:19.478Z,8.10
2023-04-21T20:29:22.202Z,8.35
2023-04-21T20:31:25.474Z,6.15
2023-04-21T20:33:28.326Z,8.82
2023-04-21T20:35:33.390Z,9.85
2023-04-21T20:37:35.997Z,10.30
2023-04-21T20:39:39.366Z,8.02
2023-04-21T20:41:45.624Z,10.75
2023-04-21T20:43:48.692Z,10.77
2023-04-21T20:45:51.308Z,13.05
2023-04-21T20:47:53.961Z,11.73
2023-04-21T20:49:57.497Z,14.23
2023-04-21T20:52:01.315Z,9.60
2023-04-21T20:54:03.924Z,10.55
2023-04-21T20:56:06.719Z,19.38
2023-04-21T20:58:10.661Z,11.70
2023-04-21T21:00:14.181Z,13.07
2023-04-21T21:02:16.797Z,19.42
2023-04-21T21:04:19.612Z,23.30
2023-04-21T21:06:22.341Z,14.52
2023-04-21T21:08:24.969Z,16.23
2023-04-21T21:10:28.119Z,13.68
2023-04-21T21:12:30.642Z,13.32
2023-04-21T21:14:34.583Z,26.60
2023-04-21T21:16:37.485Z,12.95
2023-04-21T21:18:40.053Z,18.13
2023-04-21T21:20:42.850Z,16.58
2023-04-21T21:22:45.385Z,13.63
2023-04-21T21:24:50.295Z,15.50
2023-04-21T21:26:52.934Z,11.88
2023-04-21T21:28:55.513Z,13.07
2023-04-21T21:30:59.410Z,15.30
2023-04-21T21:33:02.003Z,15.57
2023-04-21T21:35:05.020Z,13.48
2023-04-21T21:37:07.586Z,13.07
2023-04-21T21:39:11.442Z,14.65
2023-04-21T21:41:14.678Z,14.65
2023-04-21T21:43:17.273Z,15.65
2023-04-21T21:45:19.791Z,13.95
2023-04-21T21:47:23.846Z,13.23
2023-04-21T21:49:26.675Z,14.18
2023-04-21T21:51:29.774Z,14.32
2023-04-21T21:53:32.494Z,15.10
2023-04-21T21:55:35.137Z,14.90
2023-04-21T21:57:37.806Z,17.20
2023-04-21T21:59:40.647Z,12.77
2023-04-21T22:01:43.396Z,13.30
2023-04-21T22:03:48.040Z,14.48
2023-04-21T22:05:50.643Z,13.25
2023-04-21T22:07:53.747Z,13.63
2023-04-21T22:09:59.610Z,17.45
2023-04-21T22:12:02.169Z,13.15
2023-04-21T22:14:14.728Z,17.23
2023-04-21T22:16:24.964Z,16.35
2023-04-21T22:18:27.854Z,14.27
2023-04-21T22:20:32.138Z,11.70
2023-04-21T22:22:34.851Z,12.77
2023-04-21T22:24:37.389Z,11.25
2023-04-21T22:26:39.936Z,16.55
2023-04-21T22:28:43.488Z,14.93
2023-04-21T22:30:46.129Z,14.25
2023-04-21T22:32:48.794Z,12.60
2023-04-21T22:34:51.359Z,15.60
2023-04-21T22:36:55.541Z,16.60
2023-04-21T22:38:58.059Z,20.15
2023-04-21T22:41:00.682Z,13.48
2023-04-21T22:43:03.700Z,12.98
2023-04-21T22:45:07.084Z,13.90
2023-04-21T22:47:10.702Z,15.30
2023-04-21T22:49:14.204Z,13.40
2023-04-21T22:51:18.471Z,13.82
2023-04-21T22:53:22.374Z,14.15
2023-04-21T22:55:25.539Z,19.23
2023-04-21T22:57:28.359Z,13.38
2023-04-21T22:59:31.263Z,15.77
2023-04-21T23:01:34.435Z,14.77
2023-04-21T23:03:37.080Z,12.45
2023-04-21T23:05:39.929Z,11.35
2023-04-21T23:07:42.481Z,11.68
2023-04-21T23:09:46.358Z,13.75
2023-04-21T23:11:48.962Z,16.20
2023-04-21T23:13:51.514Z,14.00
2023-04-21T23:15:54.043Z,15.90
2023-04-21T23:17:56.654Z,14.52
2023-04-21T23:20:00.027Z,14.23
2023-04-21T23:22:02.576Z,13.88
2023-04-21T23:24:05.443Z,16.25
2023-04-21T23:26:09.295Z,13.32
2023-04-21T23:28:11.951Z,28.95
2023-04-21T23:30:15.131Z,13.57
2023-04-21T23:32:17.810Z,12.45
2023-04-21T23:34:20.413Z,13.73
2023-04-21T23:36:22.916Z,13.60
2023-04-21T23:38:25.606Z,12.90
2023-04-21T23:40:28.270Z,11.68
2023-04-21T23:42:32.223Z,11.75
2023-04-21T23:44:37.204Z,12.27
2023-04-21T23:46:39.811Z,12.85
2023-04-21T23:48:42.414Z,12.70
2023-04-21T23:50:45.043Z,11.48
2023-04-21T23:52:48.957Z,10.27
2023-04-21T23:54:51.669Z,12.52
2023-04-21T23:56:54.210Z,8.32
2023-04-21T23:59:00.251Z,10.25
